sensor_id;sensor_type;location;lat;lon;timestamp;P1;durP1;ratioP1;P2;durP2;ratioP2
44486;SDS011;30191;50.908;6.962;2024-02-14T00:01:51;2.88;;;0.90;;
44486;SDS011;30191;50.908;6.962;2024-02-14T00:04:17;4.97;;;0.88;;
44486;SDS011;30191;50.908;6.962;2024-02-14T00:06:44;3.17;;;0.88;;
44486;SDS011;30191;50.908;6.962;2024-02-14T00:09:10;1.60;;;0.73;;
44486;SDS011;30191;50.908;6.962;2024-02-14T00:11:36;2.38;;;0.90;;
44486;SDS011;30191;50.908;6.962;2024-02-14T00:14:02;2.13;;;0.80;;
44486;SDS011;30191;50.908;6.962;2024-02-14T00:16:28;2.65;;;1.00;;
44486;SDS011;30191;50.908;6.962;2024-02-14T00:18:56;1.98;;;0.90;;
44486;SDS011;30191;50.908;6.962;2024-02-14T00:21:22;1.58;;;0.85;;
44486;SDS011;30191;50.908;6.962;2024-02-14T00:23:49;1.77;;;0.70;;
44486;SDS011;30191;50.908;6.962;2024-02-14T00:26:15;2.63;;;1.00;;
44486;SDS011;30191;50.908;6.962;2024-02-14T00:28:41;2.42;;;0.88;;
44486;SDS011;30191;50.908;6.962;2024-02-14T00:31:07;2.25;;;0.90;;
44486;SDS011;30191;50.908;6.962;2024-02-14T00:33:32;1.52;;;0.77;;
44486;SDS011;30191;50.908;6.962;2024-02-14T00:35:58;2.63;;;0.80;;
44486;SDS011;30191;50.908;6.962;2024-02-14T00:38:24;1.85;;;0.93;;
44486;SDS011;30191;50.908;6.962;2024-02-14T00:40:49;3.47;;;0.60;;
44486;SDS011;30191;50.908;6.962;2024-02-14T00:43:15;2.63;;;0.70;;
44486;SDS011;30191;50.908;6.962;2024-02-14T00:45:40;1.73;;;0.88;;
44486;SDS011;30191;50.908;6.962;2024-02-14T00:48:06;1.60;;;0.70;;
44486;SDS011;30191;50.908;6.962;2024-02-14T00:50:32;3.85;;;0.63;;
44486;SDS011;30191;50.908;6.962;2024-02-14T00:52:59;2.80;;;1.13;;
44486;SDS011;30191;50.908;6.962;2024-02-14T00:55:25;3.10;;;1.08;;
44486;SDS011;30191;50.908;6.962;2024-02-14T00:57:51;2.03;;;0.68;;
44486;SDS011;30191;50.908;6.962;2024-02-14T01:00:17;1.92;;;0.80;;
44486;SDS011;30191;50.908;6.962;2024-02-14T01:02:43;5.07;;;0.85;;
44486;SDS011;30191;50.908;6.962;2024-02-14T01:05:09;1.67;;;0.70;;
44486;SDS011;30191;50.908;6.962;2024-02-14T01:07:35;2.67;;;0.90;;
44486;SDS011;30191;50.908;6.962;2024-02-14T01:10:01;5.38;;;1.05;;
44486;SDS011;30191;50.908;6.962;2024-02-14T01:12:27;3.97;;;1.05;;
44486;SDS011;30191;50.908;6.962;2024-02-14T01:14:54;2.08;;;0.80;;
44486;SDS011;30191;50.908;6.962;2024-02-14T01:17:20;2.67;;;0.80;;
44486;SDS011;30191;50.908;6.962;2024-02-14T01:19:45;1.50;;;0.73;;
44486;SDS011;30191;50.908;6.962;2024-02-14T01:22:11;2.42;;;0.80;;
44486;SDS011;30191;50.908;6.962;2024-02-14T01:24:37;4.25;;;1.10;;
44486;SDS011;30191;50.908;6.962;2024-02-14T01:27:02;1.90;;;0.95;;
44486;SDS011;30191;50.908;6.962;2024-02-14T01:29:28;1.27;;;0.75;;
44486;SDS011;30191;50.908;6.962;2024-02-14T01:31:54;2.70;;;0.70;;
44486;SDS011;30191;50.908;6.962;2024-02-14T01:34:20;2.20;;;0.70;;
44486;SDS011;30191;50.908;6.962;2024-02-14T01:36:47;2.78;;;0.80;;
44486;SDS011;30191;50.908;6.962;2024-02-14T01:39:13;1.67;;;0.68;;
44486;SDS011;30191;50.908;6.962;2024-02-14T01:41:38;2.47;;;0.70;;
44486;SDS011;30191;50.908;6.962;2024-02-14T01:44:10;2.85;;;0.80;;
44486;SDS011;30191;50.908;6.962;2024-02-14T01:46:36;1.40;;;0.60;;
44486;SDS011;30191;50.908;6.962;2024-02-14T01:49:02;2.22;;;0.70;;
44486;SDS011;30191;50.908;6.962;2024-02-14T01:51:28;1.02;;;0.50;;
44486;SDS011;30191;50.908;6.962;2024-02-14T01:53:54;2.67;;;0.70;;
44486;SDS011;30191;50.908;6.962;2024-02-14T01:56:21;1.48;;;0.75;;
44486;SDS011;30191;50.908;6.962;2024-02-14T01:58:46;1.70;;;0.85;;
44486;SDS011;30191;50.908;6.962;2024-02-14T02:01:13;1.27;;;0.80;;
44486;SDS011;30191;50.908;6.962;2024-02-14T02:03:39;1.23;;;0.40;;
44486;SDS011;30191;50.908;6.962;2024-02-14T02:06:05;0.93;;;0.57;;
44486;SDS011;30191;50.908;6.962;2024-02-14T02:08:31;2.13;;;0.52;;
44486;SDS011;30191;50.908;6.962;2024-02-14T02:10:58;1.20;;;0.50;;
44486;SDS011;30191;50.908;6.962;2024-02-14T02:13:23;1.35;;;0.60;;
44486;SDS011;30191;50.908;6.962;2024-02-14T02:15:51;1.00;;;0.50;;
44486;SDS011;30191;50.908;6.962;2024-02-14T02:18:18;1.85;;;0.47;;
44486;SDS011;30191;50.908;6.962;2024-02-14T02:20:44;0.80;;;0.40;;
44486;SDS011;30191;50.908;6.962;2024-02-14T02:23:13;1.90;;;0.50;;
44486;SDS011;30191;50.908;6.962;2024-02-14T02:25:42;0.63;;;0.50;;
44486;SDS011;30191;50.908;6.962;2024-02-14T02:28:09;3.13;;;0.50;;
44486;SDS011;30191;50.908;6.962;2024-02-14T02:30:35;0.80;;;0.38;;
44486;SDS011;30191;50.908;6.962;2024-02-14T02:33:01;0.80;;;0.50;;
44486;SDS011;30191;50.908;6.962;2024-02-14T02:35:28;1.13;;;0.40;;
44486;SDS011;30191;50.908;6.962;2024-02-14T02:37:53;1.23;;;0.50;;
44486;SDS011;30191;50.908;6.962;2024-02-14T02:40:19;1.10;;;0.45;;
44486;SDS011;30191;50.908;6.962;2024-02-14T02:42:46;0.47;;;0.30;;
44486;SDS011;30191;50.908;6.962;2024-02-14T02:45:12;1.33;;;0.40;;
44486;SDS011;30191;50.908;6.962;2024-02-14T02:47:38;1.38;;;0.30;;
44486;SDS011;30191;50.908;6.962;2024-02-14T02:50:05;1.15;;;0.45;;
44486;SDS011;30191;50.908;6.962;2024-02-14T02:52:31;0.75;;;0.40;;
44486;SDS011;30191;50.908;6.962;2024-02-14T02:54:57;1.65;;;0.43;;
44486;SDS011;30191;50.908;6.962;2024-02-14T02:57:22;1.40;;;0.50;;
44486;SDS011;30191;50.908;6.962;2024-02-14T02:59:48;0.98;;;0.47;;
44486;SDS011;30191;50.908;6.962;2024-02-14T03:02:14;0.43;;;0.30;;
44486;SDS011;30191;50.908;6.962;2024-02-14T03:04:40;1.00;;;0.50;;
44486;SDS011;30191;50.908;6.962;2024-02-14T03:07:07;1.38;;;0.32;;
44486;SDS011;30191;50.908;6.962;2024-02-14T03:09:34;0.60;;;0.38;;
44486;SDS011;30191;50.908;6.962;2024-02-14T03:12:00;1.55;;;0.40;;
44486;SDS011;30191;50.908;6.962;2024-02-14T03:14:28;1.15;;;0.40;;
44486;SDS011;30191;50.908;6.962;2024-02-14T03:17:00;0.60;;;0.40;;
44486;SDS011;30191;50.908;6.962;2024-02-14T03:19:27;0.63;;;0.40;;
44486;SDS011;30191;50.908;6.962;2024-02-14T03:21:53;0.40;;;0.32;;
44486;SDS011;30191;50.908;6.962;2024-02-14T03:24:20;1.23;;;0.40;;
44486;SDS011;30191;50.908;6.962;2024-02-14T03:26:45;0.68;;;0.40;;
44486;SDS011;30191;50.908;6.962;2024-02-14T03:29:11;1.33;;;0.40;;
44486;SDS011;30191;50.908;6.962;2024-02-14T03:31:37;0.90;;;0.40;;
44486;SDS011;30191;50.908;6.962;2024-02-14T03:34:03;1.02;;;0.40;;
44486;SDS011;30191;50.908;6.962;2024-02-14T03:36:28;0.60;;;0.30;;
44486;SDS011;30191;50.908;6.962;2024-02-14T03:38:58;0.73;;;0.50;;
44486;SDS011;30191;50.908;6.962;2024-02-14T03:41:25;1.38;;;0.57;;
44486;SDS011;30191;50.908;6.962;2024-02-14T03:43:52;1.75;;;0.70;;
44486;SDS011;30191;50.908;6.962;2024-02-14T03:46:19;1.13;;;0.70;;
44486;SDS011;30191;50.908;6.962;2024-02-14T03:48:46;1.55;;;0.70;;
44486;SDS011;30191;50.908;6.962;2024-02-14T03:51:12;1.10;;;0.57;;
44486;SDS011;30191;50.908;6.962;2024-02-14T03:53:38;1.58;;;0.60;;
44486;SDS011;30191;50.908;6.962;2024-02-14T03:56:04;1.10;;;0.70;;
44486;SDS011;30191;50.908;6.962;2024-02-14T03:58:32;2.63;;;0.60;;
44486;SDS011;30191;50.908;6.962;2024-02-14T04:01:02;1.35;;;0.68;;
44486;SDS011;30191;50.908;6.962;2024-02-14T04:03:28;0.82;;;0.60;;
44486;SDS011;30191;50.908;6.962;2024-02-14T04:05:54;0.57;;;0.47;;
44486;SDS011;30191;50.908;6.962;2024-02-14T04:08:19;0.40;;;0.40;;
44486;SDS011;30191;50.908;6.962;2024-02-14T04:10:45;0.85;;;0.50;;
44486;SDS011;30191;50.908;6.962;2024-02-14T04:13:11;0.93;;;0.50;;
44486;SDS011;30191;50.908;6.962;2024-02-14T04:15:36;0.95;;;0.50;;
44486;SDS011;30191;50.908;6.962;2024-02-14T04:18:02;1.50;;;0.50;;
44486;SDS011;30191;50.908;6.962;2024-02-14T04:20:31;0.65;;;0.40;;
44486;SDS011;30191;50.908;6.962;2024-02-14T04:22:56;1.27;;;0.40;;
44486;SDS011;30191;50.908;6.962;2024-02-14T04:25:23;1.67;;;0.55;;
44486;SDS011;30191;50.908;6.962;2024-02-14T04:27:49;1.65;;;0.57;;
44486;SDS011;30191;50.908;6.962;2024-02-14T04:30:14;0.73;;;0.40;;
44486;SDS011;30191;50.908;6.962;2024-02-14T04:32:40;1.95;;;0.60;;
44486;SDS011;30191;50.908;6.962;2024-02-14T04:35:08;0.63;;;0.43;;
44486;SDS011;30191;50.908;6.962;2024-02-14T04:37:34;0.52;;;0.40;;
44486;SDS011;30191;50.908;6.962;2024-02-14T04:40:01;0.88;;;0.50;;
44486;SDS011;30191;50.908;6.962;2024-02-14T04:42:29;1.40;;;0.63;;
44486;SDS011;30191;50.908;6.962;2024-02-14T04:44:55;1.70;;;0.55;;
44486;SDS011;30191;50.908;6.962;2024-02-14T04:47:20;1.23;;;0.50;;
44486;SDS011;30191;50.908;6.962;2024-02-14T04:49:46;2.30;;;0.40;;
44486;SDS011;30191;50.908;6.962;2024-02-14T04:52:12;1.08;;;0.70;;
44486;SDS011;30191;50.908;6.962;2024-02-14T04:54:37;1.10;;;0.60;;
44486;SDS011;30191;50.908;6.962;2024-02-14T04:57:03;1.25;;;0.57;;
44486;SDS011;30191;50.908;6.962;2024-02-14T04:59:29;0.85;;;0.50;;
44486;SDS011;30191;50.908;6.962;2024-02-14T05:01:55;1.27;;;0.52;;
44486;SDS011;30191;50.908;6.962;2024-02-14T05:04:21;1.38;;;0.57;;
44486;SDS011;30191;50.908;6.962;2024-02-14T05:06:47;1.45;;;0.60;;
44486;SDS011;30191;50.908;6.962;2024-02-14T05:09:13;1.27;;;0.50;;
44486;SDS011;30191;50.908;6.962;2024-02-14T05:11:40;1.45;;;0.57;;
44486;SDS011;30191;50.908;6.962;2024-02-14T05:14:06;0.98;;;0.52;;
44486;SDS011;30191;50.908;6.962;2024-02-14T05:16:32;0.70;;;0.45;;
44486;SDS011;30191;50.908;6.962;2024-02-14T05:18:57;2.10;;;0.65;;
44486;SDS011;30191;50.908;6.962;2024-02-14T05:21:23;1.08;;;0.50;;
44486;SDS011;30191;50.908;6.962;2024-02-14T05:23:49;1.52;;;0.70;;
44486;SDS011;30191;50.908;6.962;2024-02-14T05:26:15;1.00;;;0.50;;
44486;SDS011;30191;50.908;6.962;2024-02-14T05:28:41;0.30;;;0.30;;
44486;SDS011;30191;50.908;6.962;2024-02-14T05:31:07;1.85;;;0.70;;
44486;SDS011;30191;50.908;6.962;2024-02-14T05:33:33;1.00;;;0.60;;
44486;SDS011;30191;50.908;6.962;2024-02-14T05:35:58;0.95;;;0.60;;
44486;SDS011;30191;50.908;6.962;2024-02-14T05:38:24;1.23;;;0.63;;
44486;SDS011;30191;50.908;6.962;2024-02-14T05:40:49;1.08;;;0.60;;
44486;SDS011;30191;50.908;6.962;2024-02-14T05:43:15;1.10;;;0.50;;
44486;SDS011;30191;50.908;6.962;2024-02-14T05:45:43;1.45;;;0.70;;
44486;SDS011;30191;50.908;6.962;2024-02-14T05:48:09;0.70;;;0.52;;
44486;SDS011;30191;50.908;6.962;2024-02-14T05:50:34;2.03;;;0.70;;
44486;SDS011;30191;50.908;6.962;2024-02-14T05:53:01;0.90;;;0.60;;
44486;SDS011;30191;50.908;6.962;2024-02-14T05:55:28;2.70;;;0.60;;
44486;SDS011;30191;50.908;6.962;2024-02-14T05:57:53;1.10;;;0.52;;
44486;SDS011;30191;50.908;6.962;2024-02-14T06:00:19;1.35;;;0.68;;
44486;SDS011;30191;50.908;6.962;2024-02-14T06:02:49;4.22;;;0.77;;
44486;SDS011;30191;50.908;6.962;2024-02-14T06:05:15;1.10;;;0.70;;
44486;SDS011;30191;50.908;6.962;2024-02-14T06:07:41;1.08;;;0.70;;
44486;SDS011;30191;50.908;6.962;2024-02-14T06:10:07;0.93;;;0.70;;
44486;SDS011;30191;50.908;6.962;2024-02-14T06:12:34;2.10;;;1.00;;
44486;SDS011;30191;50.908;6.962;2024-02-14T06:15:03;1.60;;;0.70;;
44486;SDS011;30191;50.908;6.962;2024-02-14T06:17:28;1.90;;;0.82;;
44486;SDS011;30191;50.908;6.962;2024-02-14T06:19:54;1.83;;;0.88;;
44486;SDS011;30191;50.908;6.962;2024-02-14T06:22:20;2.15;;;0.70;;
44486;SDS011;30191;50.908;6.962;2024-02-14T06:24:46;3.47;;;0.68;;
44486;SDS011;30191;50.908;6.962;2024-02-14T06:27:15;1.52;;;0.73;;
44486;SDS011;30191;50.908;6.962;2024-02-14T06:29:44;1.80;;;0.70;;
44486;SDS011;30191;50.908;6.962;2024-02-14T06:32:11;1.95;;;0.70;;
44486;SDS011;30191;50.908;6.962;2024-02-14T06:34:38;1.35;;;0.70;;
44486;SDS011;30191;50.908;6.962;2024-02-14T06:37:03;1.35;;;0.70;;
44486;SDS011;30191;50.908;6.962;2024-02-14T06:39:29;1.45;;;0.70;;
44486;SDS011;30191;50.908;6.962;2024-02-14T06:41:55;2.55;;;0.98;;
44486;SDS011;30191;50.908;6.962;2024-02-14T06:44:22;0.50;;;0.50;;
44486;SDS011;30191;50.908;6.962;2024-02-14T06:46:48;1.67;;;0.60;;
44486;SDS011;30191;50.908;6.962;2024-02-14T06:49:15;1.98;;;0.70;;
44486;SDS011;30191;50.908;6.962;2024-02-14T06:51:41;1.05;;;0.52;;
44486;SDS011;30191;50.908;6.962;2024-02-14T06:54:06;2.55;;;0.70;;
44486;SDS011;30191;50.908;6.962;2024-02-14T06:56:33;2.63;;;0.60;;
44486;SDS011;30191;50.908;6.962;2024-02-14T06:58:59;1.77;;;0.60;;
44486;SDS011;30191;50.908;6.962;2024-02-14T07:01:28;0.52;;;0.50;;
44486;SDS011;30191;50.908;6.962;2024-02-14T07:03:54;0.43;;;0.43;;
44486;SDS011;30191;50.908;6.962;2024-02-14T07:06:20;0.90;;;0.50;;
44486;SDS011;30191;50.908;6.962;2024-02-14T07:08:45;0.88;;;0.57;;
44486;SDS011;30191;50.908;6.962;2024-02-14T07:11:12;1.00;;;0.50;;
44486;SDS011;30191;50.908;6.962;2024-02-14T07:13:38;1.38;;;0.50;;
44486;SDS011;30191;50.908;6.962;2024-02-14T07:16:04;1.08;;;0.50;;
44486;SDS011;30191;50.908;6.962;2024-02-14T07:18:31;0.65;;;0.40;;
44486;SDS011;30191;50.908;6.962;2024-02-14T07:20:56;1.15;;;0.50;;
44486;SDS011;30191;50.908;6.962;2024-02-14T07:23:22;0.88;;;0.40;;
44486;SDS011;30191;50.908;6.962;2024-02-14T07:25:48;1.33;;;0.60;;
44486;SDS011;30191;50.908;6.962;2024-02-14T07:28:13;1.05;;;0.50;;
44486;SDS011;30191;50.908;6.962;2024-02-14T07:30:39;1.00;;;0.50;;
44486;SDS011;30191;50.908;6.962;2024-02-14T07:33:05;2.15;;;0.50;;
44486;SDS011;30191;50.908;6.962;2024-02-14T07:35:31;2.33;;;0.50;;
44486;SDS011;30191;50.908;6.962;2024-02-14T07:37:56;1.02;;;0.43;;
44486;SDS011;30191;50.908;6.962;2024-02-14T07:40:22;1.10;;;0.50;;
44486;SDS011;30191;50.908;6.962;2024-02-14T07:42:48;0.80;;;0.45;;
44486;SDS011;30191;50.908;6.962;2024-02-14T07:45:14;0.63;;;0.50;;
44486;SDS011;30191;50.908;6.962;2024-02-14T07:47:40;0.70;;;0.50;;
44486;SDS011;30191;50.908;6.962;2024-02-14T07:50:06;0.68;;;0.47;;
44486;SDS011;30191;50.908;6.962;2024-02-14T07:52:32;0.82;;;0.40;;
44486;SDS011;30191;50.908;6.962;2024-02-14T07:54:58;0.85;;;0.40;;
44486;SDS011;30191;50.908;6.962;2024-02-14T07:57:24;1.42;;;0.40;;
44486;SDS011;30191;50.908;6.962;2024-02-14T07:59:50;1.60;;;0.43;;
44486;SDS011;30191;50.908;6.962;2024-02-14T08:02:17;1.42;;;0.50;;
44486;SDS011;30191;50.908;6.962;2024-02-14T08:04:43;0.65;;;0.50;;
44486;SDS011;30191;50.908;6.962;2024-02-14T08:07:09;2.35;;;0.50;;
44486;SDS011;30191;50.908;6.962;2024-02-14T08:09:35;0.55;;;0.40;;
44486;SDS011;30191;50.908;6.962;2024-02-14T08:12:01;1.05;;;0.30;;
44486;SDS011;30191;50.908;6.962;2024-02-14T08:14:27;0.80;;;0.40;;
44486;SDS011;30191;50.908;6.962;2024-02-14T08:16:52;0.70;;;0.50;;
44486;SDS011;30191;50.908;6.962;2024-02-14T08:19:18;0.82;;;0.32;;
44486;SDS011;30191;50.908;6.962;2024-02-14T08:21:44;0.47;;;0.30;;
44486;SDS011;30191;50.908;6.962;2024-02-14T08:24:10;2.00;;;0.40;;
44486;SDS011;30191;50.908;6.962;2024-02-14T08:26:36;1.23;;;0.40;;
44486;SDS011;30191;50.908;6.962;2024-02-14T08:29:01;0.63;;;0.28;;
44486;SDS011;30191;50.908;6.962;2024-02-14T08:31:28;1.13;;;0.70;;
44486;SDS011;30191;50.908;6.962;2024-02-14T08:33:54;0.65;;;0.30;;
44486;SDS011;30191;50.908;6.962;2024-02-14T08:36:19;3.50;;;0.73;;
44486;SDS011;30191;50.908;6.962;2024-02-14T08:38:45;1.83;;;0.57;;
44486;SDS011;30191;50.908;6.962;2024-02-14T08:41:11;0.57;;;0.40;;
44486;SDS011;30191;50.908;6.962;2024-02-14T08:43:37;0.80;;;0.30;;
44486;SDS011;30191;50.908;6.962;2024-02-14T08:46:03;0.90;;;0.50;;
44486;SDS011;30191;50.908;6.962;2024-02-14T08:48:33;1.83;;;0.95;;
44486;SDS011;30191;50.908;6.962;2024-02-14T08:51:00;1.15;;;0.35;;
44486;SDS011;30191;50.908;6.962;2024-02-14T08:53:25;1.17;;;0.47;;
44486;SDS011;30191;50.908;6.962;2024-02-14T08:55:52;1.13;;;0.52;;
44486;SDS011;30191;50.908;6.962;2024-02-14T08:58:17;1.05;;;0.30;;
44486;SDS011;30191;50.908;6.962;2024-02-14T09:00:43;1.98;;;0.50;;
44486;SDS011;30191;50.908;6.962;2024-02-14T09:03:08;0.98;;;0.40;;
44486;SDS011;30191;50.908;6.962;2024-02-14T09:05:34;1.35;;;0.80;;
44486;SDS011;30191;50.908;6.962;2024-02-14T09:08:00;1.60;;;0.57;;
44486;SDS011;30191;50.908;6.962;2024-02-14T09:10:26;2.35;;;0.40;;
44486;SDS011;30191;50.908;6.962;2024-02-14T09:12:52;1.70;;;0.63;;
44486;SDS011;30191;50.908;6.962;2024-02-14T09:15:18;1.15;;;0.38;;
44486;SDS011;30191;50.908;6.962;2024-02-14T09:17:44;0.90;;;0.40;;
44486;SDS011;30191;50.908;6.962;2024-02-14T09:20:10;1.80;;;0.40;;
44486;SDS011;30191;50.908;6.962;2024-02-14T09:22:39;1.10;;;0.70;;
44486;SDS011;30191;50.908;6.962;2024-02-14T09:25:06;1.10;;;0.50;;
44486;SDS011;30191;50.908;6.962;2024-02-14T09:27:34;1.38;;;0.50;;
44486;SDS011;30191;50.908;6.962;2024-02-14T09:30:01;2.25;;;0.50;;
44486;SDS011;30191;50.908;6.962;2024-02-14T09:32:29;2.05;;;0.60;;
44486;SDS011;30191;50.908;6.962;2024-02-14T09:34:55;1.10;;;0.50;;
44486;SDS011;30191;50.908;6.962;2024-02-14T09:37:22;1.20;;;0.50;;
44486;SDS011;30191;50.908;6.962;2024-02-14T09:39:48;1.45;;;0.30;;
44486;SDS011;30191;50.908;6.962;2024-02-14T09:42:14;0.80;;;0.50;;
44486;SDS011;30191;50.908;6.962;2024-02-14T09:44:41;1.00;;;0.40;;
44486;SDS011;30191;50.908;6.962;2024-02-14T09:47:10;0.55;;;0.30;;
44486;SDS011;30191;50.908;6.962;2024-02-14T09:49:37;1.52;;;0.50;;
44486;SDS011;30191;50.908;6.962;2024-02-14T09:52:03;1.88;;;0.40;;
44486;SDS011;30191;50.908;6.962;2024-02-14T09:54:31;2.42;;;0.50;;
44486;SDS011;30191;50.908;6.962;2024-02-14T09:56:59;1.88;;;0.30;;
44486;SDS011;30191;50.908;6.962;2024-02-14T09:59:27;2.15;;;0.35;;
44486;SDS011;30191;50.908;6.962;2024-02-14T10:01:54;3.38;;;0.40;;
44486;SDS011;30191;50.908;6.962;2024-02-14T10:10:45;1.25;;;0.40;;
44486;SDS011;30191;50.908;6.962;2024-02-14T10:13:10;0.90;;;0.30;;
44486;SDS011;30191;50.908;6.962;2024-02-14T10:15:36;1.20;;;0.47;;
44486;SDS011;30191;50.908;6.962;2024-02-14T10:18:02;3.35;;;0.50;;
44486;SDS011;30191;50.908;6.962;2024-02-14T10:20:28;0.98;;;0.40;;
44486;SDS011;30191;50.908;6.962;2024-02-14T10:23:02;2.38;;;0.40;;
44486;SDS011;30191;50.908;6.962;2024-02-14T10:25:29;3.65;;;0.50;;
44486;SDS011;30191;50.908;6.962;2024-02-14T10:27:56;1.58;;;0.47;;
44486;SDS011;30191;50.908;6.962;2024-02-14T10:30:22;3.05;;;0.50;;
44486;SDS011;30191;50.908;6.962;2024-02-14T10:32:47;1.35;;;0.40;;
44486;SDS011;30191;50.908;6.962;2024-02-14T10:35:14;1.83;;;0.60;;
44486;SDS011;30191;50.908;6.962;2024-02-14T10:37:40;3.67;;;0.50;;
44486;SDS011;30191;50.908;6.962;2024-02-14T10:40:07;3.95;;;0.52;;
44486;SDS011;30191;50.908;6.962;2024-02-14T10:42:34;2.38;;;0.77;;
44486;SDS011;30191;50.908;6.962;2024-02-14T10:45:00;4.28;;;0.95;;
44486;SDS011;30191;50.908;6.962;2024-02-14T10:47:31;2.78;;;0.70;;
44486;SDS011;30191;50.908;6.962;2024-02-14T10:50:04;2.00;;;0.70;;
44486;SDS011;30191;50.908;6.962;2024-02-14T10:52:31;1.30;;;0.70;;
44486;SDS011;30191;50.908;6.962;2024-02-14T10:54:59;1.92;;;0.50;;
44486;SDS011;30191;50.908;6.962;2024-02-14T10:57:28;3.92;;;0.88;;
44486;SDS011;30191;50.908;6.962;2024-02-14T10:59:54;1.95;;;0.60;;
44486;SDS011;30191;50.908;6.962;2024-02-14T11:02:23;2.08;;;0.90;;
44486;SDS011;30191;50.908;6.962;2024-02-14T11:04:49;1.08;;;0.57;;
44486;SDS011;30191;50.908;6.962;2024-02-14T11:07:18;1.30;;;0.80;;
44486;SDS011;30191;50.908;6.962;2024-02-14T11:09:46;0.80;;;0.50;;
44486;SDS011;30191;50.908;6.962;2024-02-14T11:12:11;2.13;;;0.70;;
44486;SDS011;30191;50.908;6.962;2024-02-14T11:14:37;1.73;;;0.50;;
44486;SDS011;30191;50.908;6.962;2024-02-14T11:17:12;2.13;;;0.63;;
44486;SDS011;30191;50.908;6.962;2024-02-14T11:19:38;2.58;;;0.60;;
44486;SDS011;30191;50.908;6.962;2024-02-14T11:22:38;3.25;;;0.55;;
44486;SDS011;30191;50.908;6.962;2024-02-14T11:25:05;3.60;;;0.50;;
44486;SDS011;30191;50.908;6.962;2024-02-14T11:27:32;2.40;;;0.50;;
44486;SDS011;30191;50.908;6.962;2024-02-14T11:29:58;0.98;;;0.40;;
44486;SDS011;30191;50.908;6.962;2024-02-14T11:32:27;1.10;;;0.40;;
44486;SDS011;30191;50.908;6.962;2024-02-14T11:34:56;2.08;;;0.45;;
44486;SDS011;30191;50.908;6.962;2024-02-14T11:37:28;1.98;;;0.32;;
44486;SDS011;30191;50.908;6.962;2024-02-14T11:39:55;0.80;;;0.38;;
44486;SDS011;30191;50.908;6.962;2024-02-14T11:42:22;0.50;;;0.30;;
44486;SDS011;30191;50.908;6.962;2024-02-14T11:44:48;4.22;;;0.50;;
44486;SDS011;30191;50.908;6.962;2024-02-14T11:47:14;2.20;;;0.40;;
44486;SDS011;30191;50.908;6.962;2024-02-14T11:49:40;2.10;;;0.60;;
44486;SDS011;30191;50.908;6.962;2024-02-14T11:52:09;2.22;;;0.40;;
44486;SDS011;30191;50.908;6.962;2024-02-14T11:54:36;2.72;;;0.60;;
44486;SDS011;30191;50.908;6.962;2024-02-14T11:57:03;0.65;;;0.28;;
44486;SDS011;30191;50.908;6.962;2024-02-14T11:59:28;0.82;;;0.40;;
44486;SDS011;30191;50.908;6.962;2024-02-14T12:01:54;1.10;;;0.20;;
44486;SDS011;30191;50.908;6.962;2024-02-14T12:04:23;1.65;;;0.30;;
44486;SDS011;30191;50.908;6.962;2024-02-14T12:06:49;1.20;;;0.30;;
44486;SDS011;30191;50.908;6.962;2024-02-14T12:09:15;1.95;;;0.32;;
44486;SDS011;30191;50.908;6.962;2024-02-14T12:11:41;1.75;;;0.30;;
44486;SDS011;30191;50.908;6.962;2024-02-14T12:14:11;1.63;;;0.28;;
44486;SDS011;30191;50.908;6.962;2024-02-14T12:16:37;1.85;;;0.60;;
44486;SDS011;30191;50.908;6.962;2024-02-14T12:19:05;0.85;;;0.40;;
44486;SDS011;30191;50.908;6.962;2024-02-14T12:21:35;0.25;;;0.20;;
44486;SDS011;30191;50.908;6.962;2024-02-14T12:24:06;0.30;;;0.30;;
44486;SDS011;30191;50.908;6.962;2024-02-14T12:26:33;0.20;;;0.20;;
44486;SDS011;30191;50.908;6.962;2024-02-14T12:29:03;0.63;;;0.30;;
44486;SDS011;30191;50.908;6.962;2024-02-14T12:31:29;0.30;;;0.30;;
44486;SDS011;30191;50.908;6.962;2024-02-14T12:33:56;0.32;;;0.20;;
44486;SDS011;30191;50.908;6.962;2024-02-14T12:36:24;0.95;;;0.20;;
44486;SDS011;30191;50.908;6.962;2024-02-14T12:38:57;1.10;;;0.20;;
44486;SDS011;30191;50.908;6.962;2024-02-14T12:41:24;0.73;;;0.30;;
44486;SDS011;30191;50.908;6.962;2024-02-14T12:43:51;0.85;;;0.20;;
44486;SDS011;30191;50.908;6.962;2024-02-14T12:46:17;1.75;;;0.22;;
44486;SDS011;30191;50.908;6.962;2024-02-14T12:48:43;0.43;;;0.30;;
44486;SDS011;30191;50.908;6.962;2024-02-14T12:51:09;1.30;;;0.20;;
44486;SDS011;30191;50.908;6.962;2024-02-14T12:53:35;0.40;;;0.20;;
44486;SDS011;30191;50.908;6.962;2024-02-14T12:56:01;0.47;;;0.20;;
44486;SDS011;30191;50.908;6.962;2024-02-14T12:58:29;0.70;;;0.20;;
44486;SDS011;30191;50.908;6.962;2024-02-14T13:00:56;2.10;;;0.30;;
44486;SDS011;30191;50.908;6.962;2024-02-14T13:03:23;0.73;;;0.20;;
44486;SDS011;30191;50.908;6.962;2024-02-14T13:05:53;0.90;;;0.30;;
44486;SDS011;30191;50.908;6.962;2024-02-14T13:08:19;1.17;;;0.20;;
44486;SDS011;30191;50.908;6.962;2024-02-14T13:10:45;1.83;;;0.20;;
44486;SDS011;30191;50.908;6.962;2024-02-14T13:13:11;0.25;;;0.25;;
44486;SDS011;30191;50.908;6.962;2024-02-14T13:15:37;1.88;;;0.15;;
44486;SDS011;30191;50.908;6.962;2024-02-14T13:18:03;0.22;;;0.20;;
44486;SDS011;30191;50.908;6.962;2024-02-14T13:20:29;0.75;;;0.30;;
44486;SDS011;30191;50.908;6.962;2024-02-14T13:22:54;0.52;;;0.35;;
44486;SDS011;30191;50.908;6.962;2024-02-14T13:25:20;0.82;;;0.20;;
44486;SDS011;30191;50.908;6.962;2024-02-14T13:27:46;0.32;;;0.30;;
44486;SDS011;30191;50.908;6.962;2024-02-14T13:30:12;0.82;;;0.50;;
44486;SDS011;30191;50.908;6.962;2024-02-14T13:32:38;0.47;;;0.38;;
44486;SDS011;30191;50.908;6.962;2024-02-14T13:35:04;0.70;;;0.38;;
44486;SDS011;30191;50.908;6.962;2024-02-14T13:37:33;0.45;;;0.30;;
44486;SDS011;30191;50.908;6.962;2024-02-14T13:40:00;0.60;;;0.30;;
44486;SDS011;30191;50.908;6.962;2024-02-14T13:42:29;0.50;;;0.40;;
44486;SDS011;30191;50.908;6.962;2024-02-14T13:44:55;1.35;;;0.52;;
44486;SDS011;30191;50.908;6.962;2024-02-14T13:47:21;3.03;;;0.60;;
44486;SDS011;30191;50.908;6.962;2024-02-14T13:49:48;0.85;;;0.52;;
44486;SDS011;30191;50.908;6.962;2024-02-14T13:52:13;1.23;;;0.40;;
44486;SDS011;30191;50.908;6.962;2024-02-14T13:54:40;0.90;;;0.50;;
44486;SDS011;30191;50.908;6.962;2024-02-14T13:57:06;0.35;;;0.30;;
44486;SDS011;30191;50.908;6.962;2024-02-14T13:59:32;0.40;;;0.30;;
44486;SDS011;30191;50.908;6.962;2024-02-14T14:01:58;0.80;;;0.40;;
44486;SDS011;30191;50.908;6.962;2024-02-14T14:04:23;2.15;;;0.47;;
44486;SDS011;30191;50.908;6.962;2024-02-14T14:06:50;0.88;;;0.60;;
44486;SDS011;30191;50.908;6.962;2024-02-14T14:09:16;1.50;;;0.50;;
44486;SDS011;30191;50.908;6.962;2024-02-14T14:11:42;3.08;;;0.50;;
44486;SDS011;30191;50.908;6.962;2024-02-14T14:14:08;0.88;;;0.40;;
44486;SDS011;30191;50.908;6.962;2024-02-14T14:16:36;0.70;;;0.50;;
44486;SDS011;30191;50.908;6.962;2024-02-14T14:19:02;1.83;;;0.50;;
44486;SDS011;30191;50.908;6.962;2024-02-14T14:21:28;0.65;;;0.47;;
44486;SDS011;30191;50.908;6.962;2024-02-14T14:23:54;1.50;;;0.30;;
44486;SDS011;30191;50.908;6.962;2024-02-14T14:26:20;1.63;;;0.50;;
44486;SDS011;30191;50.908;6.962;2024-02-14T14:28:45;1.08;;;0.40;;
44486;SDS011;30191;50.908;6.962;2024-02-14T14:31:11;0.65;;;0.40;;
44486;SDS011;30191;50.908;6.962;2024-02-14T14:33:37;1.08;;;0.47;;
44486;SDS011;30191;50.908;6.962;2024-02-14T14:36:03;1.67;;;0.30;;
44486;SDS011;30191;50.908;6.962;2024-02-14T14:38:30;1.25;;;0.50;;
44486;SDS011;30191;50.908;6.962;2024-02-14T14:40:55;2.20;;;0.73;;
44486;SDS011;30191;50.908;6.962;2024-02-14T14:43:21;5.32;;;0.63;;
44486;SDS011;30191;50.908;6.962;2024-02-14T14:45:47;1.80;;;0.60;;
44486;SDS011;30191;50.908;6.962;2024-02-14T14:48:14;1.58;;;0.80;;
44486;SDS011;30191;50.908;6.962;2024-02-14T14:50:40;1.35;;;0.50;;